Time;durP1;ratioP1;P1;durP2;ratioP2;P2;SDS_P1;SDS_P2;PMS_P1;PMS_P2;Temp;Humidity;BMP_temperature;BMP_pressure;BME280_temperature;BME280_humidity;BME280_pressure;Samples;Min_cycle;Max_cycle;Signal;HPM_P1;HPM_P2
2021/12/29 00:00:58;;;;;;;3.05;0.32;;;;;;;;;;5031508;28;20487;-65
2021/12/29 00:03:24;;;;;;;4.15;0.70;;;;;;;;;;5027813;28;20049;-65
2021/12/29 00:05:49;;;;;;;8.98;0.50;;;;;;;;;;5030260;28;20064;-65
2021/12/29 00:08:14;;;;;;;6.25;0.40;;;;;;;;;;5034035;28;20026;-65
2021/12/29 00:10:40;;;;;;;4.38;0.70;;;;;;;;;;5017365;28;20044;-65
2021/12/29 00:13:06;;;;;;;3.53;0.47;;;;;;;;;;5012804;28;20113;-65
2021/12/29 00:15:32;;;;;;;5.00;0.40;;;;;;;;;;5014451;28;20489;-66
2021/12/29 00:17:57;;;;;;;4.60;0.60;;;;;;;;;;5017429;28;20029;-66
2021/12/29 00:20:28;;;;;;;3.88;0.30;;;;;;;;;;5036225;28;20112;-66
2021/12/29 00:22:53;;;;;;;4.32;0.30;;;;;;;;;;5034098;28;20045;-65
2021/12/29 00:25:18;;;;;;;4.88;0.50;;;;;;;;;;5030710;28;20057;-66
2021/12/29 00:27:43;;;;;;;3.95;0.30;;;;;;;;;;5030112;28;20116;-66
2021/12/29 00:30:10;;;;;;;3.50;0.40;;;;;;;;;;5033325;28;20037;-65
2021/12/29 00:32:35;;;;;;;3.38;0.50;;;;;;;;;;5033482;28;20100;-65
2021/12/29 00:35:00;;;;;;;2.25;0.30;;;;;;;;;;5031882;28;20470;-65
2021/12/29 00:37:25;;;;;;;1.45;0.20;;;;;;;;;;5032437;28;20030;-65
2021/12/29 00:39:51;;;;;;;3.00;0.28;;;;;;;;;;5025100;28;20029;-66
2021/12/29 00:42:17;;;;;;;3.17;0.40;;;;;;;;;;5032527;28;20040;-66
2021/12/29 00:44:43;;;;;;;1.13;0.20;;;;;;;;;;5015237;28;20017;-66
2021/12/29 00:47:09;;;;;;;3.78;0.20;;;;;;;;;;5033252;28;20025;-66
2021/12/29 00:49:36;;;;;;;2.28;0.20;;;;;;;;;;5032695;28;20118;-66
2021/12/29 00:52:05;;;;;;;2.55;0.55;;;;;;;;;;5033138;28;20033;-66
2021/12/29 00:54:31;;;;;;;1.98;0.25;;;;;;;;;;5032862;28;20030;-66
2021/12/29 00:56:56;;;;;;;0.95;0.10;;;;;;;;;;5032738;28;20021;-65
2021/12/29 00:59:23;;;;;;;1.80;0.20;;;;;;;;;;5028011;28;20025;-65
2021/12/29 01:01:48;;;;;;;1.40;0.10;;;;;;;;;;5033162;28;20517;-66
2021/12/29 01:04:14;;;;;;;2.47;0.10;;;;;;;;;;5032454;28;20163;-66
2021/12/29 01:06:39;;;;;;;1.40;0.10;;;;;;;;;;5032403;28;20472;-66
2021/12/29 01:09:04;;;;;;;1.05;0.10;;;;;;;;;;5031039;28;20025;-66
2021/12/29 01:11:29;;;;;;;0.52;0.10;;;;;;;;;;5029833;28;20402;-66
2021/12/29 01:13:55;;;;;;;1.35;0.20;;;;;;;;;;5032132;28;20021;-66
2021/12/29 01:18:58;;;;;;;0.20;0.00;;;;;;;;;;5031411;28;20036;-66
2021/12/29 01:21:23;;;;;;;0.05;0.00;;;;;;;;;;5015057;28;20393;-66
2021/12/29 01:23:48;;;;;;;0.55;0.00;;;;;;;;;;5031264;28;20037;-66
2021/12/29 01:26:13;;;;;;;0.80;0.00;;;;;;;;;;5032858;28;20041;-66
2021/12/29 01:28:38;;;;;;;0.40;0.00;;;;;;;;;;5030733;28;20610;-66
2021/12/29 01:31:04;;;;;;;0.35;0.00;;;;;;;;;;5032964;28;20029;-66
2021/12/29 01:33:29;;;;;;;0.25;0.00;;;;;;;;;;5013981;28;20470;-65
2021/12/29 01:35:54;;;;;;;0.55;0.05;;;;;;;;;;5013109;28;20475;-66
2021/12/29 01:38:19;;;;;;;0.10;0.00;;;;;;;;;;5032419;28;20029;-66
2021/12/29 01:40:48;;;;;;;1.25;0.47;;;;;;;;;;5028630;28;20601;-66
2021/12/29 01:43:14;;;;;;;0.75;0.10;;;;;;;;;;5032615;28;20057;-66
2021/12/29 01:45:39;;;;;;;1.27;0.00;;;;;;;;;;5022137;28;20072;-66
2021/12/29 01:48:05;;;;;;;0.98;0.00;;;;;;;;;;5032021;28;20382;-66
2021/12/29 01:50:31;;;;;;;1.55;0.08;;;;;;;;;;5031365;28;20033;-66
2021/12/29 01:53:02;;;;;;;0.68;0.13;;;;;;;;;;5032868;28;20021;-66
2021/12/29 01:55:27;;;;;;;1.17;0.10;;;;;;;;;;5031578;28;20024;-66
2021/12/29 01:57:53;;;;;;;0.40;0.00;;;;;;;;;;5005717;28;20021;-66
2021/12/29 02:00:20;;;;;;;0.88;0.17;;;;;;;;;;5032228;28;20032;-65
2021/12/29 02:02:46;;;;;;;0.47;0.10;;;;;;;;;;5032578;28;20107;-65
2021/12/29 02:05:11;;;;;;;0.95;0.60;;;;;;;;;;5030795;28;20470;-66
2021/12/29 02:07:36;;;;;;;0.65;0.10;;;;;;;;;;5031834;28;20540;-65
2021/12/29 02:10:03;;;;;;;0.68;0.10;;;;;;;;;;5028566;28;20018;-66
2021/12/29 02:12:28;;;;;;;1.48;0.20;;;;;;;;;;5031313;28;20028;-65
2021/12/29 02:14:53;;;;;;;1.67;0.50;;;;;;;;;;5013988;28;20029;-64
2021/12/29 02:17:19;;;;;;;1.17;0.10;;;;;;;;;;5029976;28;20203;-65
2021/12/29 02:19:47;;;;;;;0.75;0.10;;;;;;;;;;5030745;28;20021;-65
2021/12/29 02:22:26;;;;;;;0.60;0.00;;;;;;;;;;5031850;28;20501;-65
2021/12/29 02:25:05;;;;;;;1.45;0.10;;;;;;;;;;5031726;28;20501;-65
2021/12/29 02:27:30;;;;;;;1.65;0.10;;;;;;;;;;5030657;28;20387;-65
2021/12/29 02:29:55;;;;;;;1.15;0.10;;;;;;;;;;5032240;28;20037;-65
2021/12/29 02:32:22;;;;;;;0.70;0.10;;;;;;;;;;5013742;28;20021;-65
2021/12/29 02:34:48;;;;;;;1.20;0.15;;;;;;;;;;5031045;28;20104;-65
2021/12/29 02:37:19;;;;;;;0.30;0.13;;;;;;;;;;5030792;28;20125;-65
2021/12/29 02:39:44;;;;;;;0.10;0.00;;;;;;;;;;5023473;28;20088;-65
2021/12/29 02:42:10;;;;;;;1.27;0.10;;;;;;;;;;5030543;28;20395;-66
2021/12/29 02:44:40;;;;;;;2.05;0.10;;;;;;;;;;5031765;28;20509;-66
2021/12/29 02:47:05;;;;;;;1.50;0.10;;;;;;;;;;5029253;28;20057;-66
2021/12/29 02:49:31;;;;;;;0.50;0.20;;;;;;;;;;5035118;28;20057;-66
2021/12/29 02:51:56;;;;;;;1.23;0.40;;;;;;;;;;5035420;28;20102;-65
2021/12/29 02:54:21;;;;;;;2.25;0.10;;;;;;;;;;5035350;28;20386;-66
2021/12/29 02:56:48;;;;;;;1.95;0.30;;;;;;;;;;5035631;28;20052;-66
2021/12/29 02:59:14;;;;;;;0.70;0.10;;;;;;;;;;5035536;28;20029;-66
2021/12/29 03:01:39;;;;;;;1.02;0.20;;;;;;;;;;5034880;28;20477;-66
2021/12/29 03:04:05;;;;;;;0.43;0.10;;;;;;;;;;5017224;28;20039;-66
2021/12/29 03:06:30;;;;;;;1.45;0.20;;;;;;;;;;5035290;28;20025;-66
2021/12/29 03:08:55;;;;;;;1.42;0.17;;;;;;;;;;5029841;28;20106;-66
2021/12/29 03:11:21;;;;;;;1.17;0.10;;;;;;;;;;5030475;28;20037;-65
2021/12/29 03:13:46;;;;;;;1.30;0.10;;;;;;;;;;5034688;28;20025;-65
2021/12/29 03:16:12;;;;;;;1.27;0.20;;;;;;;;;;5030482;28;20025;-65
2021/12/29 03:18:38;;;;;;;1.33;0.20;;;;;;;;;;5028140;28;20079;-66
2021/12/29 03:21:03;;;;;;;1.50;0.10;;;;;;;;;;5033203;28;20486;-66
2021/12/29 03:23:28;;;;;;;1.90;0.20;;;;;;;;;;5035387;28;20033;-65
2021/12/29 03:25:53;;;;;;;0.90;0.20;;;;;;;;;;5034612;28;20553;-65
2021/12/29 03:28:20;;;;;;;2.38;0.30;;;;;;;;;;5024381;28;20028;-66
2021/12/29 03:30:47;;;;;;;0.75;0.20;;;;;;;;;;5031077;28;20025;-65
2021/12/29 03:33:13;;;;;;;0.90;0.30;;;;;;;;;;5034698;28;20074;-65
2021/12/29 03:35:49;;;;;;;1.23;0.32;;;;;;;;;;5033706;28;20030;-65
2021/12/29 03:38:15;;;;;;;2.72;0.35;;;;;;;;;;5034727;28;20025;-65
2021/12/29 03:40:41;;;;;;;0.98;0.45;;;;;;;;;;5027016;28;20062;-65
2021/12/29 03:43:07;;;;;;;0.98;0.30;;;;;;;;;;5027557;28;20025;-66
2021/12/29 03:45:32;;;;;;;1.73;0.30;;;;;;;;;;5016422;28;20032;-65
2021/12/29 03:47:58;;;;;;;1.40;0.22;;;;;;;;;;5034701;28;20478;-65
2021/12/29 03:50:23;;;;;;;1.65;0.30;;;;;;;;;;5030250;28;20032;-65
2021/12/29 03:52:48;;;;;;;2.08;0.30;;;;;;;;;;5022775;28;20053;-65
2021/12/29 03:55:14;;;;;;;2.70;0.20;;;;;;;;;;5034312;28;20022;-66
2021/12/29 03:57:39;;;;;;;0.85;0.30;;;;;;;;;;5034081;28;20363;-66
2021/12/29 04:00:05;;;;;;;1.13;0.50;;;;;;;;;;5033379;28;20108;-66
2021/12/29 04:02:31;;;;;;;2.25;0.20;;;;;;;;;;5033733;28;20029;-66
2021/12/29 04:04:56;;;;;;;2.00;0.10;;;;;;;;;;5033516;28;20087;-66
2021/12/29 04:07:21;;;;;;;1.95;0.30;;;;;;;;;;5034289;28;20021;-66
2021/12/29 04:09:46;;;;;;;1.48;0.30;;;;;;;;;;5028411;28;20061;-66
2021/12/29 04:12:12;;;;;;;2.92;0.20;;;;;;;;;;5026916;28;20034;-66
2021/12/29 04:14:37;;;;;;;1.17;0.30;;;;;;;;;;5033441;28;20060;-66
2021/12/29 04:17:09;;;;;;;1.70;0.30;;;;;;;;;;5031923;28;20060;-66
2021/12/29 04:20:54;;;;;;;1.88;0.20;;;;;;;;;;5033149;28;20116;-66
2021/12/29 04:22:26;;;;;;;1.40;0.35;;;;;;;;;;5021645;28;20477;-66
2021/12/29 04:24:52;;;;;;;2.90;0.38;;;;;;;;;;5033098;28;20041;-66
2021/12/29 04:27:17;;;;;;;0.57;0.20;;;;;;;;;;5033742;28;20060;-66
2021/12/29 04:29:42;;;;;;;2.58;0.50;;;;;;;;;;5033606;28;20071;-66
2021/12/29 04:32:08;;;;;;;1.20;0.20;;;;;;;;;;5033486;28;20044;-66
2021/12/29 04:34:33;;;;;;;0.80;0.20;;;;;;;;;;5032096;28;20022;-65
2021/12/29 04:36:58;;;;;;;0.68;0.10;;;;;;;;;;5032995;28;20476;-66
2021/12/29 04:39:23;;;;;;;1.50;0.20;;;;;;;;;;5012845;28;20389;-66
2021/12/29 04:41:48;;;;;;;0.90;0.20;;;;;;;;;;5031701;28;20417;-65
2021/12/29 04:44:14;;;;;;;1.75;0.20;;;;;;;;;;4996250;28;20021;-66
2021/12/29 04:46:44;;;;;;;0.45;0.17;;;;;;;;;;5012599;28;20124;-66
2021/12/29 04:49:12;;;;;;;0.73;0.10;;;;;;;;;;5022892;28;20442;-66
2021/12/29 04:51:43;;;;;;;0.95;0.10;;;;;;;;;;5026036;28;20040;-66
2021/12/29 04:54:09;;;;;;;2.15;0.20;;;;;;;;;;5033638;28;20551;-65
2021/12/29 04:56:34;;;;;;;0.70;0.10;;;;;;;;;;5014843;28;20112;-66
2021/12/29 04:58:59;;;;;;;2.08;0.13;;;;;;;;;;5015960;28;20025;-66
2021/12/29 05:01:24;;;;;;;0.80;0.10;;;;;;;;;;5030411;28;20030;-66
2021/12/29 05:03:50;;;;;;;2.83;0.20;;;;;;;;;;5013252;28;20088;-65
2021/12/29 05:08:40;;;;;;;1.10;0.32;;;;;;;;;;5033218;28;20025;-66
2021/12/29 05:11:10;;;;;;;2.10;0.17;;;;;;;;;;5029707;28;20030;-66
2021/12/29 05:13:37;;;;;;;0.77;0.20;;;;;;;;;;5032178;28;20033;-66
2021/12/29 05:16:02;;;;;;;0.55;0.20;;;;;;;;;;5033124;28;20385;-66
2021/12/29 05:18:29;;;;;;;1.30;0.20;;;;;;;;;;5014706;28;20244;-66
2021/12/29 05:20:54;;;;;;;0.88;0.20;;;;;;;;;;5032273;28;20059;-66
2021/12/29 05:23:20;;;;;;;0.95;0.20;;;;;;;;;;5029695;28;20104;-66
2021/12/29 05:25:46;;;;;;;0.77;0.20;;;;;;;;;;5026208;28;20482;-65
2021/12/29 05:28:11;;;;;;;1.02;0.30;;;;;;;;;;5032428;28;20029;-66
2021/12/29 05:30:36;;;;;;;1.00;0.20;;;;;;;;;;5014481;28;20029;-66
2021/12/29 05:33:03;;;;;;;1.58;0.57;;;;;;;;;;5032572;28;20037;-66
2021/12/29 05:35:28;;;;;;;0.90;0.35;;;;;;;;;;5029541;28;20150;-66
2021/12/29 05:37:54;;;;;;;1.08;0.30;;;;;;;;;;5032695;28;20541;-65
2021/12/29 05:40:19;;;;;;;1.30;0.30;;;;;;;;;;5029019;28;20053;-65
2021/12/29 05:42:44;;;;;;;0.57;0.40;;;;;;;;;;5014344;28;20037;-66
2021/12/29 05:45:11;;;;;;;1.95;0.50;;;;;;;;;;5020166;28;20034;-66
2021/12/29 05:47:37;;;;;;;0.90;0.40;;;;;;;;;;5030840;28;20037;-67
2021/12/29 05:50:03;;;;;;;2.20;0.70;;;;;;;;;;5030857;28;20032;-66
2021/12/29 05:52:28;;;;;;;1.90;0.40;;;;;;;;;;5032125;28;20032;-66
2021/12/29 05:54:54;;;;;;;0.98;0.40;;;;;;;;;;5030470;28;20026;-66
2021/12/29 05:57:19;;;;;;;2.03;0.63;;;;;;;;;;5032159;28;20029;-66
2021/12/29 05:59:44;;;;;;;2.00;0.40;;;;;;;;;;4997426;28;20026;-65
2021/12/29 06:02:09;;;;;;;1.33;0.30;;;;;;;;;;5032346;28;20039;-66
2021/12/29 06:04:35;;;;;;;0.65;0.30;;;;;;;;;;5031559;28;20028;-66
2021/12/29 06:07:00;;;;;;;0.80;0.32;;;;;;;;;;5025615;28;20128;-66
2021/12/29 06:09:25;;;;;;;2.83;0.60;;;;;;;;;;4998870;28;20414;-66
2021/12/29 06:11:50;;;;;;;1.13;0.40;;;;;;;;;;5030748;28;20031;-66
2021/12/29 06:14:15;;;;;;;0.90;0.40;;;;;;;;;;5031716;28;20164;-66
2021/12/29 06:16:41;;;;;;;1.08;0.38;;;;;;;;;;5030047;28;20022;-66
2021/12/29 06:19:06;;;;;;;0.80;0.30;;;;;;;;;;5031343;28;20040;-66
2021/12/29 06:21:31;;;;;;;2.38;0.30;;;;;;;;;;5012974;28;20038;-66
2021/12/29 06:23:56;;;;;;;1.33;0.68;;;;;;;;;;5031480;28;20039;-66
2021/12/29 06:26:21;;;;;;;2.00;0.40;;;;;;;;;;5030180;28;20728;-66
2021/12/29 06:28:47;;;;;;;3.08;0.50;;;;;;;;;;5028872;28;20517;-66
2021/12/29 06:31:12;;;;;;;1.27;0.50;;;;;;;;;;5031097;28;20470;-67
2021/12/29 06:33:37;;;;;;;1.50;0.52;;;;;;;;;;5031513;28;20029;-66
2021/12/29 06:36:03;;;;;;;1.33;0.70;;;;;;;;;;5031572;28;20013;-66
2021/12/29 06:38:28;;;;;;;0.80;0.30;;;;;;;;;;5030923;28;20434;-66
2021/12/29 06:40:53;;;;;;;1.10;0.40;;;;;;;;;;5025776;28;20044;-66
2021/12/29 06:43:18;;;;;;;0.80;0.35;;;;;;;;;;5031191;28;20045;-66
2021/12/29 06:45:43;;;;;;;1.02;0.30;;;;;;;;;;5013415;28;20037;-65
2021/12/29 06:48:09;;;;;;;1.73;0.30;;;;;;;;;;5023076;28;20033;-66
2021/12/29 06:50:34;;;;;;;0.68;0.20;;;;;;;;;;5030723;28;20025;-66
2021/12/29 06:52:59;;;;;;;1.13;0.40;;;;;;;;;;5031353;28;20033;-66
2021/12/29 06:55:25;;;;;;;1.85;0.30;;;;;;;;;;5031443;28;20036;-66
2021/12/29 06:57:50;;;;;;;1.00;0.40;;;;;;;;;;5021435;28;20101;-66
2021/12/29 07:00:16;;;;;;;0.70;0.30;;;;;;;;;;5031446;28;20026;-66
2021/12/29 07:02:41;;;;;;;0.82;0.35;;;;;;;;;;5031101;28;20042;-66
2021/12/29 07:05:07;;;;;;;2.17;0.50;;;;;;;;;;5030393;28;20033;-65
2021/12/29 07:07:32;;;;;;;1.75;0.60;;;;;;;;;;5031100;28;20026;-65
2021/12/29 07:09:57;;;;;;;1.60;0.75;;;;;;;;;;5025488;28;20032;-66
2021/12/29 07:12:22;;;;;;;2.13;0.95;;;;;;;;;;5012827;28;20501;-66
2021/12/29 07:14:48;;;;;;;1.73;0.80;;;;;;;;;;5031149;28;20026;-66
2021/12/29 07:17:13;;;;;;;1.15;0.70;;;;;;;;;;5031460;28;20112;-67
2021/12/29 07:19:38;;;;;;;1.33;0.98;;;;;;;;;;5018351;28;20021;-65
2021/12/29 07:22:04;;;;;;;2.40;0.90;;;;;;;;;;5028207;28;20029;-66
2021/12/29 07:24:30;;;;;;;2.15;0.90;;;;;;;;;;5030362;28;20026;-65
2021/12/29 07:26:55;;;;;;;1.55;0.88;;;;;;;;;;5013446;28;20057;-65
2021/12/29 07:29:20;;;;;;;1.33;0.90;;;;;;;;;;5024441;28;20030;-65
2021/12/29 07:31:45;;;;;;;2.75;1.35;;;;;;;;;;5020574;28;20091;-65
2021/12/29 07:34:10;;;;;;;2.17;1.17;;;;;;;;;;5032570;28;20056;-65
2021/12/29 07:36:36;;;;;;;1.77;1.52;;;;;;;;;;5034542;28;20068;-65
2021/12/29 07:39:01;;;;;;;1.50;1.40;;;;;;;;;;5033404;28;20014;-66
2021/12/29 07:41:26;;;;;;;2.20;2.00;;;;;;;;;;5023476;28;20053;-66
2021/12/29 07:43:52;;;;;;;2.78;1.83;;;;;;;;;;5016186;28;20470;-66
2021/12/29 07:46:17;;;;;;;3.97;2.20;;;;;;;;;;5016540;28;20037;-66
2021/12/29 07:48:43;;;;;;;2.58;2.20;;;;;;;;;;5034613;28;20026;-66
2021/12/29 07:51:09;;;;;;;3.65;2.85;;;;;;;;;;5032749;28;20029;-66
2021/12/29 07:53:37;;;;;;;5.03;2.97;;;;;;;;;;5034644;28;20021;-65
2021/12/29 07:56:03;;;;;;;4.85;3.08;;;;;;;;;;5022224;28;20029;-65
2021/12/29 07:58:28;;;;;;;4.53;3.08;;;;;;;;;;5034719;28;20025;-65
2021/12/29 08:00:54;;;;;;;5.03;3.45;;;;;;;;;;5033603;28;20420;-66
2021/12/29 08:03:19;;;;;;;7.20;4.32;;;;;;;;;;5033694;28;20029;-64
2021/12/29 08:05:45;;;;;;;6.57;3.63;;;;;;;;;;5015179;28;20033;-65
2021/12/29 08:08:11;;;;;;;4.78;3.42;;;;;;;;;;5034800;28;20539;-66
2021/12/29 08:10:37;;;;;;;5.18;3.20;;;;;;;;;;5025702;28;20017;-65
2021/12/29 08:13:03;;;;;;;6.65;4.28;;;;;;;;;;5031582;28;20480;-65
2021/12/29 08:15:29;;;;;;;8.55;3.78;;;;;;;;;;5031666;28;20024;-66
2021/12/29 08:17:55;;;;;;;6.22;4.03;;;;;;;;;;5030613;28;20014;-66
2021/12/29 08:20:21;;;;;;;4.63;3.70;;;;;;;;;;5033645;28;20552;-66
2021/12/29 08:22:46;;;;;;;5.15;3.63;;;;;;;;;;5027348;28;20453;-66
2021/12/29 08:25:12;;;;;;;3.35;3.00;;;;;;;;;;5016069;28;20053;-65
2021/12/29 08:27:37;;;;;;;6.15;3.97;;;;;;;;;;5033173;28;20022;-66
2021/12/29 08:30:05;;;;;;;4.20;3.28;;;;;;;;;;5033278;28;20454;-66
2021/12/29 08:32:30;;;;;;;4.80;3.53;;;;;;;;;;5030340;28;20025;-66
2021/12/29 08:34:55;;;;;;;5.95;4.25;;;;;;;;;;5014665;28;20024;-66
2021/12/29 08:37:20;;;;;;;6.55;4.00;;;;;;;;;;5033293;28;20033;-66
2021/12/29 08:39:46;;;;;;;7.20;4.28;;;;;;;;;;5012430;28;20100;-66
2021/12/29 08:42:12;;;;;;;7.05;4.00;;;;;;;;;;5000602;28;20421;-66
2021/12/29 08:44:37;;;;;;;4.80;3.97;;;;;;;;;;4992745;28;20364;-66
2021/12/29 08:47:03;;;;;;;5.22;4.05;;;;;;;;;;4994021;28;20479;-66
2021/12/29 08:49:28;;;;;;;4.57;3.78;;;;;;;;;;4993818;28;20022;-66
2021/12/29 08:51:53;;;;;;;5.65;4.47;;;;;;;;;;4994079;28;20501;-66
2021/12/29 08:54:18;;;;;;;5.30;4.25;;;;;;;;;;4993969;28;20022;-66
2021/12/29 08:56:43;;;;;;;5.10;4.28;;;;;;;;;;4993743;28;20486;-66
2021/12/29 08:59:10;;;;;;;7.60;5.07;;;;;;;;;;4992408;28;20114;-66
2021/12/29 09:01:36;;;;;;;6.45;5.28;;;;;;;;;;4994005;28;20034;-66
2021/12/29 09:04:01;;;;;;;6.43;4.43;;;;;;;;;;4992925;28;20089;-66
2021/12/29 09:06:26;;;;;;;6.05;4.80;;;;;;;;;;4991894;28;20440;-66
2021/12/29 09:08:54;;;;;;;5.55;4.43;;;;;;;;;;4988085;28;20372;-66
2021/12/29 09:11:19;;;;;;;5.50;4.40;;;;;;;;;;4986331;28;20030;-66
2021/12/29 09:13:44;;;;;;;6.30;4.53;;;;;;;;;;4993307;28;20029;-66
2021/12/29 09:16:10;;;;;;;4.65;4.10;;;;;;;;;;4993870;28;20195;-66
2021/12/29 09:18:36;;;;;;;4.30;3.65;;;;;;;;;;4993660;28;20027;-66
2021/12/29 09:21:06;;;;;;;3.80;3.42;;;;;;;;;;4991352;28;20541;-66
2021/12/29 09:23:32;;;;;;;3.88;3.10;;;;;;;;;;4993845;28;20034;-66
2021/12/29 09:25:58;;;;;;;3.83;3.20;;;;;;;;;;4992169;28;20034;-65
2021/12/29 09:28:23;;;;;;;4.35;2.70;;;;;;;;;;4990496;28;20498;-66
2021/12/29 09:30:49;;;;;;;4.47;2.70;;;;;;;;;;4991756;28;20118;-65
2021/12/29 09:33:16;;;;;;;3.20;2.80;;;;;;;;;;4990124;28;20097;-66
2021/12/29 09:35:41;;;;;;;3.85;2.83;;;;;;;;;;4986699;28;20379;-66
2021/12/29 09:38:08;;;;;;;4.80;4.15;;;;;;;;;;4990016;28;20030;-66
2021/12/29 09:40:34;;;;;;;2.90;2.60;;;;;;;;;;4997336;28;20138;-66
2021/12/29 09:42:59;;;;;;;2.75;1.60;;;;;;;;;;5011053;28;20116;-66
2021/12/29 09:45:25;;;;;;;0.82;0.57;;;;;;;;;;5032174;28;20025;-65
2021/12/29 09:47:51;;;;;;;0.73;0.43;;;;;;;;;;5025069;28;20354;-66
2021/12/29 09:50:17;;;;;;;0.50;0.20;;;;;;;;;;5009093;28;20065;-65
2021/12/29 09:52:43;;;;;;;0.82;0.25;;;;;;;;;;5034236;28;20025;-65
2021/12/29 09:55:10;;;;;;;0.88;0.20;;;;;;;;;;5031282;28;20086;-66
2021/12/29 09:57:36;;;;;;;0.88;0.20;;;;;;;;;;5030216;28;20060;-66
2021/12/29 10:00:09;;;;;;;0.60;0.20;;;;;;;;;;5011900;28;20462;-64
2021/12/29 10:02:34;;;;;;;1.48;0.40;;;;;;;;;;5027282;28;20040;-64
2021/12/29 10:05:00;;;;;;;0.50;0.20;;;;;;;;;;5026245;28;20034;-64
2021/12/29 10:07:26;;;;;;;0.70;0.20;;;;;;;;;;5026257;28;20045;-64
2021/12/29 10:09:52;;;;;;;0.85;0.10;;;;;;;;;;5019515;28;20033;-64
2021/12/29 10:12:20;;;;;;;0.93;0.52;;;;;;;;;;5031372;28;20032;-64
2021/12/29 10:14:50;;;;;;;1.75;0.10;;;;;;;;;;5031651;28;20025;-64
2021/12/29 10:17:16;;;;;;;0.45;0.10;;;;;;;;;;5027753;28;20242;-64
2021/12/29 10:19:41;;;;;;;0.30;0.10;;;;;;;;;;5021838;28;20477;-65
2021/12/29 10:22:06;;;;;;;0.57;0.30;;;;;;;;;;5037254;28;20048;-65
2021/12/29 10:24:31;;;;;;;0.30;0.20;;;;;;;;;;5013657;28;20029;-64
2021/12/29 10:26:57;;;;;;;0.32;0.10;;;;;;;;;;5025130;28;20040;-65
2021/12/29 10:29:23;;;;;;;0.77;0.20;;;;;;;;;;5020161;28;20037;-64
2021/12/29 10:31:55;;;;;;;0.30;0.10;;;;;;;;;;4992604;28;20434;-65
2021/12/29 10:34:22;;;;;;;0.40;0.10;;;;;;;;;;5025642;28;20072;-65
2021/12/29 10:36:50;;;;;;;0.43;0.20;;;;;;;;;;5030629;28;20493;-64
2021/12/29 10:39:23;;;;;;;0.50;0.10;;;;;;;;;;5028334;28;20030;-64
2021/12/29 10:41:48;;;;;;;0.28;0.28;;;;;;;;;;5028838;28;20041;-65
2021/12/29 10:44:13;;;;;;;0.30;0.20;;;;;;;;;;5030443;28;20379;-66
2021/12/29 10:46:39;;;;;;;0.40;0.20;;;;;;;;;;5027917;28;20013;-64
2021/12/29 10:49:06;;;;;;;0.68;0.28;;;;;;;;;;5010252;28;20044;-65
2021/12/29 10:51:35;;;;;;;0.30;0.20;;;;;;;;;;5030001;28;20021;-64
2021/12/29 10:54:05;;;;;;;0.68;0.10;;;;;;;;;;5013925;28;20072;-64
2021/12/29 10:56:31;;;;;;;0.50;0.20;;;;;;;;;;5029868;28;20506;-64
2021/12/29 10:58:56;;;;;;;0.20;0.10;;;;;;;;;;5030991;28;21486;-65
2021/12/29 11:01:22;;;;;;;0.40;0.30;;;;;;;;;;5031014;28;20068;-65
2021/12/29 11:03:49;;;;;;;0.20;0.20;;;;;;;;;;5029191;28;20032;-65
2021/12/29 11:06:19;;;;;;;0.65;0.30;;;;;;;;;;5030464;28;20483;-65
2021/12/29 11:08:45;;;;;;;0.55;0.40;;;;;;;;;;5032751;28;20466;-66
2021/12/29 11:11:11;;;;;;;0.60;0.50;;;;;;;;;;5038052;28;20036;-65
2021/12/29 11:13:36;;;;;;;1.00;0.55;;;;;;;;;;5026528;28;20017;-65
2021/12/29 11:16:04;;;;;;;1.33;0.45;;;;;;;;;;5033147;28;20017;-65
2021/12/29 11:18:42;;;;;;;0.50;0.40;;;;;;;;;;5034940;28;20045;-66
2021/12/29 11:21:08;;;;;;;0.22;0.20;;;;;;;;;;5032080;28;20025;-67
2021/12/29 11:23:33;;;;;;;0.50;0.30;;;;;;;;;;5016681;28;20025;-67
2021/12/29 11:26:00;;;;;;;0.50;0.20;;;;;;;;;;5034644;28;20064;-66
2021/12/29 11:28:26;;;;;;;0.75;0.20;;;;;;;;;;5017140;28;20029;-67
2021/12/29 11:30:52;;;;;;;0.43;0.20;;;;;;;;;;5034385;28;20425;-67
2021/12/29 11:33:18;;;;;;;0.95;0.30;;;;;;;;;;5033974;28;20013;-67
2021/12/29 11:35:45;;;;;;;0.30;0.20;;;;;;;;;;5033577;28;20022;-66
2021/12/29 11:38:10;;;;;;;0.95;0.20;;;;;;;;;;5034938;28;20281;-67
2021/12/29 11:40:39;;;;;;;0.80;0.20;;;;;;;;;;5031779;28;20121;-67
2021/12/29 11:43:07;;;;;;;0.80;0.25;;;;;;;;;;5039693;28;20098;-67
2021/12/29 11:45:32;;;;;;;0.63;0.20;;;;;;;;;;5049349;28;20025;-66
2021/12/29 11:47:58;;;;;;;0.35;0.20;;;;;;;;;;5034175;28;20367;-67
2021/12/29 11:50:23;;;;;;;0.38;0.38;;;;;;;;;;5016508;28;20025;-67
2021/12/29 11:53:07;;;;;;;0.50;0.20;;;;;;;;;;5029517;28;20474;-66
2021/12/29 11:55:33;;;;;;;0.30;0.17;;;;;;;;;;5028589;28;20405;-66
2021/12/29 11:58:18;;;;;;;1.42;0.10;;;;;;;;;;5033529;28;20029;-66
2021/12/29 12:00:45;;;;;;;0.28;0.10;;;;;;;;;;5014619;28;20548;-66
2021/12/29 12:03:17;;;;;;;0.25;0.20;;;;;;;;;;5034181;28;20104;-66
2021/12/29 12:05:43;;;;;;;0.22;0.10;;;;;;;;;;5030329;28;20013;-65
2021/12/29 12:08:13;;;;;;;0.20;0.10;;;;;;;;;;5032368;28;20014;-65
2021/12/29 12:10:39;;;;;;;0.43;0.10;;;;;;;;;;5023290;28;20026;-65
2021/12/29 12:13:06;;;;;;;1.05;0.20;;;;;;;;;;5033209;28;20132;-65
2021/12/29 12:15:37;;;;;;;0.50;0.20;;;;;;;;;;5033493;28;20013;-66
2021/12/29 12:18:07;;;;;;;2.38;0.22;;;;;;;;;;5017701;28;20417;-65
2021/12/29 12:20:44;;;;;;;1.17;0.10;;;;;;;;;;5052869;28;20455;-65
2021/12/29 12:23:20;;;;;;;0.17;0.10;;;;;;;;;;5035058;28;20466;-64
2021/12/29 12:25:45;;;;;;;0.10;0.10;;;;;;;;;;5033746;28;20039;-65
2021/12/29 12:28:14;;;;;;;0.17;0.13;;;;;;;;;;5033842;28;20368;-64
2021/12/29 12:30:44;;;;;;;0.17;0.17;;;;;;;;;;5033864;28;20473;-65
2021/12/29 12:33:11;;;;;;;0.30;0.10;;;;;;;;;;5033894;28;20127;-65
2021/12/29 12:35:38;;;;;;;0.10;0.10;;;;;;;;;;5030620;28;20044;-66
2021/12/29 12:38:22;;;;;;;0.65;0.20;;;;;;;;;;5033016;28;20010;-66
2021/12/29 12:41:03;;;;;;;0.22;0.20;;;;;;;;;;5027031;28;20433;-66
2021/12/29 12:43:28;;;;;;;0.20;0.20;;;;;;;;;;5028672;28;20104;-66
2021/12/29 12:45:53;;;;;;;0.22;0.17;;;;;;;;;;5010413;28;20538;-66
2021/12/29 12:48:22;;;;;;;0.40;0.10;;;;;;;;;;5029747;28;20030;-66
2021/12/29 12:50:47;;;;;;;1.13;0.28;;;;;;;;;;5029666;28;20497;-66
2021/12/29 12:53:13;;;;;;;0.30;0.20;;;;;;;;;;5033001;28;20108;-66
2021/12/29 12:55:44;;;;;;;0.43;0.20;;;;;;;;;;5032957;28;20025;-66
2021/12/29 12:58:10;;;;;;;0.20;0.10;;;;;;;;;;5033431;28;20076;-66
2021/12/29 13:00:40;;;;;;;0.47;0.10;;;;;;;;;;5030031;28;20151;-66
2021/12/29 13:03:05;;;;;;;0.20;0.20;;;;;;;;;;5027021;28;20021;-66
2021/12/29 13:05:39;;;;;;;0.50;0.15;;;;;;;;;;5031794;28;20039;-66
2021/12/29 13:08:08;;;;;;;0.17;0.08;;;;;;;;;;5033156;28;20025;-66
2021/12/29 13:10:53;;;;;;;1.30;0.10;;;;;;;;;;5026968;28;20025;-66
2021/12/29 13:13:22;;;;;;;0.25;0.20;;;;;;;;;;5014376;28;20041;-66
2021/12/29 13:15:49;;;;;;;1.45;0.25;;;;;;;;;;5031816;28;20030;-66
2021/12/29 13:18:15;;;;;;;0.90;0.17;;;;;;;;;;5011449;28;20475;-66
2021/12/29 13:20:41;;;;;;;0.65;0.10;;;;;;;;;;5031115;28;20025;-66
2021/12/29 13:23:07;;;;;;;0.50;0.00;;;;;;;;;;5031396;28;20103;-65
2021/12/29 13:25:32;;;;;;;0.75;0.05;;;;;;;;;;5032166;28;20033;-66
2021/12/29 13:28:02;;;;;;;0.73;0.00;;;;;;;;;;5032001;28;20036;-65
2021/12/29 13:30:29;;;;;;;0.10;0.00;;;;;;;;;;5032268;28;20490;-66
2021/12/29 13:32:56;;;;;;;0.35;0.10;;;;;;;;;;5014764;28;20079;-66
2021/12/29 13:35:26;;;;;;;0.08;0.00;;;;;;;;;;5031427;28;20112;-66
2021/12/29 13:37:51;;;;;;;0.10;0.00;;;;;;;;;;5032151;28;20374;-67
2021/12/29 13:40:19;;;;;;;0.00;0.00;;;;;;;;;;5009789;28;20036;-67
2021/12/29 13:42:45;;;;;;;0.00;0.00;;;;;;;;;;5031763;28;20033;-67
2021/12/29 13:45:23;;;;;;;0.10;0.00;;;;;;;;;;5032045;28;20052;-67
2021/12/29 13:47:49;;;;;;;0.10;0.10;;;;;;;;;;5031625;28;20112;-67
2021/12/29 13:50:14;;;;;;;0.20;0.10;;;;;;;;;;4995232;28;20125;-65
2021/12/29 13:52:39;;;;;;;0.15;0.10;;;;;;;;;;5027938;28;20326;-66
2021/12/29 13:55:05;;;;;;;0.75;0.10;;;;;;;;;;5031886;28;20060;-67
2021/12/29 13:57:30;;;;;;;0.10;0.05;;;;;;;;;;5012705;28;20133;-66
2021/12/29 13:59:58;;;;;;;1.20;0.85;;;;;;;;;;5013125;28;20104;-65
2021/12/29 14:02:24;;;;;;;1.58;0.20;;;;;;;;;;5032106;28;20029;-65
2021/12/29 14:04:49;;;;;;;0.57;0.40;;;;;;;;;;5030987;28;20025;-67
2021/12/29 14:07:16;;;;;;;0.40;0.20;;;;;;;;;;5031104;28;20025;-66
2021/12/29 14:09:42;;;;;;;0.25;0.10;;;;;;;;;;5026362;28;20029;-65
2021/12/29 14:12:07;;;;;;;0.75;0.20;;;;;;;;;;5029292;28;20024;-66
2021/12/29 14:14:32;;;;;;;0.75;0.30;;;;;;;;;;5026711;28;20530;-66
2021/12/29 14:16:57;;;;;;;0.90;0.50;;;;;;;;;;5030844;28;20010;-65
2021/12/29 14:19:24;;;;;;;0.98;0.47;;;;;;;;;;5008571;28;20021;-66
2021/12/29 14:21:49;;;;;;;1.23;0.50;;;;;;;;;;5031126;28;20489;-66
2021/12/29 14:24:16;;;;;;;1.35;0.60;;;;;;;;;;5031412;28;20031;-67
2021/12/29 14:26:43;;;;;;;3.08;0.80;;;;;;;;;;5030203;28;20402;-66
2021/12/29 14:29:08;;;;;;;1.25;0.80;;;;;;;;;;5031526;28;20021;-67
2021/12/29 14:31:42;;;;;;;1.10;0.95;;;;;;;;;;5031079;28;20445;-66
2021/12/29 14:34:16;;;;;;;2.28;1.30;;;;;;;;;;5031405;28;20017;-66
2021/12/29 14:36:46;;;;;;;2.10;0.90;;;;;;;;;;5029922;28;20018;-66
2021/12/29 14:39:13;;;;;;;1.10;1.00;;;;;;;;;;5029147;28;20022;-66
2021/12/29 14:41:40;;;;;;;1.58;1.02;;;;;;;;;;5010405;28;20095;-66
2021/12/29 14:44:07;;;;;;;1.58;1.48;;;;;;;;;;5012686;28;20028;-67